sensor_id;sensor_type;location;lat;lon;timestamp;temperature;humidity
580;DHT22;276;48.392;9.950;2023-11-18T00:01:33;8.60;99.90
580;DHT22;276;48.392;9.950;2023-11-18T00:04:01;8.60;99.90
580;DHT22;276;48.392;9.950;2023-11-18T00:06:27;8.60;99.90
580;DHT22;276;48.392;9.950;2023-11-18T00:08:53;8.70;99.90
580;DHT22;276;48.392;9.950;2023-11-18T00:11:19;8.70;99.90
580;DHT22;276;48.392;9.950;2023-11-18T00:13:44;8.70;99.90
580;DHT22;276;48.392;9.950;2023-11-18T00:16:10;8.70;99.90
580;DHT22;276;48.392;9.950;2023-11-18T00:18:40;8.70;99.90
580;DHT22;276;48.392;9.950;2023-11-18T00:21:06;8.70;99.90
580;DHT22;276;48.392;9.950;2023-11-18T00:23:35;8.70;99.90
580;DHT22;276;48.392;9.950;2023-11-18T00:26:01;8.70;99.90
580;DHT22;276;48.392;9.950;2023-11-18T00:28:33;8.70;99.90
580;DHT22;276;48.392;9.950;2023-11-18T00:31:00;8.70;99.90
580;DHT22;276;48.392;9.950;2023-11-18T00:33:26;8.70;99.90
580;DHT22;276;48.392;9.950;2023-11-18T00:35:52;8.70;99.90
580;DHT22;276;48.392;9.950;2023-11-18T00:38:18;8.70;99.90
580;DHT22;276;48.392;9.950;2023-11-18T00:40:46;8.70;99.90
580;DHT22;276;48.392;9.950;2023-11-18T00:43:11;8.60;99.90
580;DHT22;276;48.392;9.950;2023-11-18T00:45:40;8.60;99.90
580;DHT22;276;48.392;9.950;2023-11-18T00:48:06;8.60;99.90
580;DHT22;276;48.392;9.950;2023-11-18T00:50:32;8.50;99.90
580;DHT22;276;48.392;9.950;2023-11-18T00:53:01;8.50;99.90
580;DHT22;276;48.392;9.950;2023-11-18T00:55:26;8.50;99.90
580;DHT22;276;48.392;9.950;2023-11-18T00:57:55;8.50;99.90
580;DHT22;276;48.392;9.950;2023-11-18T01:00:20;8.40;99.90
580;DHT22;276;48.392;9.950;2023-11-18T01:02:51;8.30;99.90
580;DHT22;276;48.392;9.950;2023-11-18T01:05:18;8.30;99.90
580;DHT22;276;48.392;9.950;2023-11-18T01:07:44;8.20;99.90
580;DHT22;276;48.392;9.950;2023-11-18T01:10:10;8.10;99.90
580;DHT22;276;48.392;9.950;2023-11-18T01:12:36;8.00;99.90
580;DHT22;276;48.392;9.950;2023-11-18T01:15:04;8.00;99.90
580;DHT22;276;48.392;9.950;2023-11-18T01:17:33;7.90;99.90
580;DHT22;276;48.392;9.950;2023-11-18T01:20:01;7.90;99.90
580;DHT22;276;48.392;9.950;2023-11-18T01:22:31;7.80;99.90
580;DHT22;276;48.392;9.950;2023-11-18T01:25:00;7.80;99.90
580;DHT22;276;48.392;9.950;2023-11-18T01:27:26;7.80;99.90
580;DHT22;276;48.392;9.950;2023-11-18T01:29:52;7.80;99.90
580;DHT22;276;48.392;9.950;2023-11-18T01:32:20;7.80;99.90
580;DHT22;276;48.392;9.950;2023-11-18T01:34:46;7.80;99.90
580;DHT22;276;48.392;9.950;2023-11-18T01:37:18;7.80;99.90
580;DHT22;276;48.392;9.950;2023-11-18T01:39:46;7.80;99.90
580;DHT22;276;48.392;9.950;2023-11-18T01:42:14;7.80;99.90
580;DHT22;276;48.392;9.950;2023-11-18T01:44:45;7.80;99.90
580;DHT22;276;48.392;9.950;2023-11-18T01:47:11;7.80;99.90
580;DHT22;276;48.392;9.950;2023-11-18T01:49:38;7.80;99.90
580;DHT22;276;48.392;9.950;2023-11-18T01:52:10;7.70;99.90
580;DHT22;276;48.392;9.950;2023-11-18T01:54:40;7.70;99.90
580;DHT22;276;48.392;9.950;2023-11-18T01:57:06;7.70;99.90
580;DHT22;276;48.392;9.950;2023-11-18T01:59:33;7.70;99.90
580;DHT22;276;48.392;9.950;2023-11-18T02:01:59;7.70;99.90
580;DHT22;276;48.392;9.950;2023-11-18T02:04:25;7.80;99.90
580;DHT22;276;48.392;9.950;2023-11-18T02:06:53;7.80;99.90
580;DHT22;276;48.392;9.950;2023-11-18T02:09:20;7.80;99.90
580;DHT22;276;48.392;9.950;2023-11-18T02:12:19;7.90;99.90
580;DHT22;276;48.392;9.950;2023-11-18T02:14:45;7.90;99.90
580;DHT22;276;48.392;9.950;2023-11-18T02:17:17;7.90;99.90
580;DHT22;276;48.392;9.950;2023-11-18T02:19:43;7.90;99.90
580;DHT22;276;48.392;9.950;2023-11-18T02:22:10;8.00;99.90
580;DHT22;276;48.392;9.950;2023-11-18T02:24:36;8.00;99.90
580;DHT22;276;48.392;9.950;2023-11-18T02:27:06;8.00;99.90
580;DHT22;276;48.392;9.950;2023-11-18T02:29:37;8.00;99.90
580;DHT22;276;48.392;9.950;2023-11-18T02:32:25;8.00;99.90
580;DHT22;276;48.392;9.950;2023-11-18T02:35:13;8.00;99.90
580;DHT22;276;48.392;9.950;2023-11-18T02:37:45;8.00;99.90
580;DHT22;276;48.392;9.950;2023-11-18T02:40:19;8.00;99.90
580;DHT22;276;48.392;9.950;2023-11-18T02:42:48;8.00;99.90
580;DHT22;276;48.392;9.950;2023-11-18T02:45:15;8.10;99.90
580;DHT22;276;48.392;9.950;2023-11-18T02:47:45;8.10;99.90
580;DHT22;276;48.392;9.950;2023-11-18T02:50:11;8.10;99.90
580;DHT22;276;48.392;9.950;2023-11-18T02:52:37;8.10;99.90
580;DHT22;276;48.392;9.950;2023-11-18T02:55:07;8.10;99.90
580;DHT22;276;48.392;9.950;2023-11-18T02:57:36;8.10;99.90
580;DHT22;276;48.392;9.950;2023-11-18T03:00:07;8.20;99.90
580;DHT22;276;48.392;9.950;2023-11-18T03:02:51;8.10;99.90
580;DHT22;276;48.392;9.950;2023-11-18T03:05:20;8.20;99.90
580;DHT22;276;48.392;9.950;2023-11-18T03:07:51;8.10;99.90
580;DHT22;276;48.392;9.950;2023-11-18T03:10:20;8.00;99.90
580;DHT22;276;48.392;9.950;2023-11-18T03:12:50;7.90;99.90
580;DHT22;276;48.392;9.950;2023-11-18T03:15:18;8.00;99.90
580;DHT22;276;48.392;9.950;2023-11-18T03:17:48;8.00;99.90
580;DHT22;276;48.392;9.950;2023-11-18T03:20:20;8.00;99.90
580;DHT22;276;48.392;9.950;2023-11-18T03:22:49;8.00;99.90
580;DHT22;276;48.392;9.950;2023-11-18T03:25:18;7.90;99.90
580;DHT22;276;48.392;9.950;2023-11-18T03:27:47;7.90;99.90
580;DHT22;276;48.392;9.950;2023-11-18T03:30:13;7.90;99.90
580;DHT22;276;48.392;9.950;2023-11-18T03:32:39;7.90;99.90
580;DHT22;276;48.392;9.950;2023-11-18T03:35:13;7.90;99.90
580;DHT22;276;48.392;9.950;2023-11-18T03:37:44;7.90;99.90
580;DHT22;276;48.392;9.950;2023-11-18T03:40:14;7.90;99.90
580;DHT22;276;48.392;9.950;2023-11-18T03:42:43;7.90;99.90
580;DHT22;276;48.392;9.950;2023-11-18T03:45:11;7.90;99.90
580;DHT22;276;48.392;9.950;2023-11-18T03:47:38;7.90;99.90
580;DHT22;276;48.392;9.950;2023-11-18T03:50:06;7.90;99.90
580;DHT22;276;48.392;9.950;2023-11-18T03:52:38;7.90;99.90
580;DHT22;276;48.392;9.950;2023-11-18T03:55:04;7.80;99.90
580;DHT22;276;48.392;9.950;2023-11-18T03:57:30;7.80;99.90
580;DHT22;276;48.392;9.950;2023-11-18T03:59:55;7.90;99.90
580;DHT22;276;48.392;9.950;2023-11-18T04:02:21;7.90;99.90
580;DHT22;276;48.392;9.950;2023-11-18T04:04:47;7.90;99.90
580;DHT22;276;48.392;9.950;2023-11-18T04:07:14;7.80;99.90
580;DHT22;276;48.392;9.950;2023-11-18T04:09:39;7.80;99.90
580;DHT22;276;48.392;9.950;2023-11-18T04:12:08;7.80;99.90
580;DHT22;276;48.392;9.950;2023-11-18T04:14:36;7.80;99.90
580;DHT22;276;48.392;9.950;2023-11-18T04:17:02;7.80;99.90
580;DHT22;276;48.392;9.950;2023-11-18T04:19:28;7.80;99.90
580;DHT22;276;48.392;9.950;2023-11-18T04:21:54;7.80;99.90
580;DHT22;276;48.392;9.950;2023-11-18T04:24:22;7.80;99.90
580;DHT22;276;48.392;9.950;2023-11-18T04:26:52;7.80;99.90
580;DHT22;276;48.392;9.950;2023-11-18T04:29:20;7.80;99.90
580;DHT22;276;48.392;9.950;2023-11-18T04:31:46;7.80;99.90
580;DHT22;276;48.392;9.950;2023-11-18T04:34:12;7.80;99.90
580;DHT22;276;48.392;9.950;2023-11-18T04:36:43;7.80;99.90
580;DHT22;276;48.392;9.950;2023-11-18T04:39:10;7.80;99.90
580;DHT22;276;48.392;9.950;2023-11-18T04:41:37;7.80;99.90
580;DHT22;276;48.392;9.950;2023-11-18T04:44:05;7.80;99.90
580;DHT22;276;48.392;9.950;2023-11-18T04:46:31;7.80;99.90
580;DHT22;276;48.392;9.950;2023-11-18T04:48:59;7.80;99.90
580;DHT22;276;48.392;9.950;2023-11-18T04:51:29;7.90;99.90
580;DHT22;276;48.392;9.950;2023-11-18T04:54:00;7.90;99.90
580;DHT22;276;48.392;9.950;2023-11-18T04:56:27;7.90;99.90
580;DHT22;276;48.392;9.950;2023-11-18T04:58:53;8.00;99.90
580;DHT22;276;48.392;9.950;2023-11-18T05:01:19;8.00;99.90
580;DHT22;276;48.392;9.950;2023-11-18T05:03:47;8.10;99.90
580;DHT22;276;48.392;9.950;2023-11-18T05:06:13;8.10;99.90
580;DHT22;276;48.392;9.950;2023-11-18T05:08:38;8.10;99.90
580;DHT22;276;48.392;9.950;2023-11-18T05:11:04;8.10;99.90
580;DHT22;276;48.392;9.950;2023-11-18T05:13:30;8.10;99.90
580;DHT22;276;48.392;9.950;2023-11-18T05:15:55;8.10;99.90
580;DHT22;276;48.392;9.950;2023-11-18T05:18:23;8.10;99.90
580;DHT22;276;48.392;9.950;2023-11-18T05:20:49;8.10;99.90
580;DHT22;276;48.392;9.950;2023-11-18T05:23:15;8.10;99.90
580;DHT22;276;48.392;9.950;2023-11-18T05:25:43;8.10;99.90
580;DHT22;276;48.392;9.950;2023-11-18T05:28:09;8.10;99.90
580;DHT22;276;48.392;9.950;2023-11-18T05:30:35;8.00;99.90
580;DHT22;276;48.392;9.950;2023-11-18T05:33:07;8.10;99.90
580;DHT22;276;48.392;9.950;2023-11-18T05:35:36;8.10;99.90
580;DHT22;276;48.392;9.950;2023-11-18T05:38:02;8.00;99.90
580;DHT22;276;48.392;9.950;2023-11-18T05:40:28;8.00;99.90
580;DHT22;276;48.392;9.950;2023-11-18T05:42:55;8.00;99.90
580;DHT22;276;48.392;9.950;2023-11-18T05:45:23;8.00;99.90
580;DHT22;276;48.392;9.950;2023-11-18T05:47:57;8.00;99.90
580;DHT22;276;48.392;9.950;2023-11-18T05:50:23;7.90;99.90
580;DHT22;276;48.392;9.950;2023-11-18T05:52:53;7.90;99.90
580;DHT22;276;48.392;9.950;2023-11-18T05:55:19;7.90;99.90
580;DHT22;276;48.392;9.950;2023-11-18T05:57:44;7.90;99.90
580;DHT22;276;48.392;9.950;2023-11-18T06:00:14;7.90;99.90
580;DHT22;276;48.392;9.950;2023-11-18T06:02:46;7.90;99.90
580;DHT22;276;48.392;9.950;2023-11-18T06:05:12;7.80;99.90
580;DHT22;276;48.392;9.950;2023-11-18T06:07:38;7.80;99.90
580;DHT22;276;48.392;9.950;2023-11-18T06:10:08;7.70;99.90
580;DHT22;276;48.392;9.950;2023-11-18T06:12:34;7.70;99.90
580;DHT22;276;48.392;9.950;2023-11-18T06:15:02;7.70;99.90
580;DHT22;276;48.392;9.950;2023-11-18T06:17:30;7.70;99.90
580;DHT22;276;48.392;9.950;2023-11-18T06:19:56;7.70;99.90
580;DHT22;276;48.392;9.950;2023-11-18T06:22:24;7.80;99.90
580;DHT22;276;48.392;9.950;2023-11-18T06:24:50;7.80;99.90
580;DHT22;276;48.392;9.950;2023-11-18T06:27:18;7.80;99.90
580;DHT22;276;48.392;9.950;2023-11-18T06:29:49;7.80;99.90
580;DHT22;276;48.392;9.950;2023-11-18T06:32:15;7.80;99.90
580;DHT22;276;48.392;9.950;2023-11-18T06:34:41;7.80;99.90
580;DHT22;276;48.392;9.950;2023-11-18T06:37:09;7.70;99.90
580;DHT22;276;48.392;9.950;2023-11-18T06:39:34;7.70;99.90
580;DHT22;276;48.392;9.950;2023-11-18T06:42:05;7.70;99.90
580;DHT22;276;48.392;9.950;2023-11-18T06:44:37;7.70;99.90
580;DHT22;276;48.392;9.950;2023-11-18T06:47:03;7.70;99.90
580;DHT22;276;48.392;9.950;2023-11-18T06:49:32;7.70;99.90
580;DHT22;276;48.392;9.950;2023-11-18T06:52:00;7.70;99.90
580;DHT22;276;48.392;9.950;2023-11-18T06:54:31;7.70;99.90
580;DHT22;276;48.392;9.950;2023-11-18T06:57:01;7.70;99.90
580;DHT22;276;48.392;9.950;2023-11-18T06:59:31;7.70;99.90
580;DHT22;276;48.392;9.950;2023-11-18T07:01:57;7.70;99.90
580;DHT22;276;48.392;9.950;2023-11-18T07:04:22;7.70;99.90
580;DHT22;276;48.392;9.950;2023-11-18T07:06:51;7.80;99.90
580;DHT22;276;48.392;9.950;2023-11-18T07:09:19;7.80;99.90
580;DHT22;276;48.392;9.950;2023-11-18T07:11:47;7.80;99.90
580;DHT22;276;48.392;9.950;2023-11-18T07:14:13;7.80;99.90
580;DHT22;276;48.392;9.950;2023-11-18T07:16:40;7.90;99.90
580;DHT22;276;48.392;9.950;2023-11-18T07:19:08;7.90;99.90
580;DHT22;276;48.392;9.950;2023-11-18T07:21:40;7.90;99.90
580;DHT22;276;48.392;9.950;2023-11-18T07:24:06;7.90;99.90
580;DHT22;276;48.392;9.950;2023-11-18T07:26:32;7.80;99.90
580;DHT22;276;48.392;9.950;2023-11-18T07:28:58;7.80;99.90
580;DHT22;276;48.392;9.950;2023-11-18T07:31:23;7.70;99.90
580;DHT22;276;48.392;9.950;2023-11-18T07:33:52;7.70;99.90
580;DHT22;276;48.392;9.950;2023-11-18T07:36:18;7.70;99.90
580;DHT22;276;48.392;9.950;2023-11-18T07:38:46;7.70;99.90
580;DHT22;276;48.392;9.950;2023-11-18T07:41:15;7.70;99.90
580;DHT22;276;48.392;9.950;2023-11-18T07:43:50;7.60;99.90
580;DHT22;276;48.392;9.950;2023-11-18T07:46:19;7.50;99.90
580;DHT22;276;48.392;9.950;2023-11-18T07:48:48;7.50;99.90
580;DHT22;276;48.392;9.950;2023-11-18T07:51:14;7.40;99.90
580;DHT22;276;48.392;9.950;2023-11-18T07:53:40;7.40;99.90
580;DHT22;276;48.392;9.950;2023-11-18T07:56:06;7.30;99.90
580;DHT22;276;48.392;9.950;2023-11-18T07:58:33;7.30;99.90
580;DHT22;276;48.392;9.950;2023-11-18T08:01:03;7.40;99.90
580;DHT22;276;48.392;9.950;2023-11-18T08:03:31;7.40;99.90
580;DHT22;276;48.392;9.950;2023-11-18T08:05:58;7.30;99.90
580;DHT22;276;48.392;9.950;2023-11-18T08:08:24;7.30;99.90
580;DHT22;276;48.392;9.950;2023-11-18T08:10:52;7.30;99.90
580;DHT22;276;48.392;9.950;2023-11-18T08:13:18;7.30;99.90
580;DHT22;276;48.392;9.950;2023-11-18T08:15:46;7.30;99.90
580;DHT22;276;48.392;9.950;2023-11-18T08:18:12;7.30;99.90
580;DHT22;276;48.392;9.950;2023-11-18T08:20:40;7.30;99.90
580;DHT22;276;48.392;9.950;2023-11-18T08:23:06;7.30;99.90
580;DHT22;276;48.392;9.950;2023-11-18T08:25:32;7.20;99.90
580;DHT22;276;48.392;9.950;2023-11-18T08:28:02;7.10;99.90
580;DHT22;276;48.392;9.950;2023-11-18T08:30:29;7.10;99.90
580;DHT22;276;48.392;9.950;2023-11-18T08:32:56;7.00;99.90
580;DHT22;276;48.392;9.950;2023-11-18T08:35:25;7.00;99.90
580;DHT22;276;48.392;9.950;2023-11-18T08:37:54;7.10;99.90
580;DHT22;276;48.392;9.950;2023-11-18T08:40:20;7.00;99.90
580;DHT22;276;48.392;9.950;2023-11-18T08:42:53;7.00;99.90
580;DHT22;276;48.392;9.950;2023-11-18T08:45:28;7.00;99.90
580;DHT22;276;48.392;9.950;2023-11-18T08:47:59;7.00;99.90
580;DHT22;276;48.392;9.950;2023-11-18T08:50:27;7.00;99.90
580;DHT22;276;48.392;9.950;2023-11-18T08:52:55;7.00;99.90
580;DHT22;276;48.392;9.950;2023-11-18T08:55:27;7.00;99.90
580;DHT22;276;48.392;9.950;2023-11-18T08:58:06;7.00;99.90
580;DHT22;276;48.392;9.950;2023-11-18T09:00:48;7.10;99.90
580;DHT22;276;48.392;9.950;2023-11-18T09:03:18;7.10;99.90
580;DHT22;276;48.392;9.950;2023-11-18T09:05:52;7.10;99.90
580;DHT22;276;48.392;9.950;2023-11-18T09:11:08;7.20;99.90
580;DHT22;276;48.392;9.950;2023-11-18T09:13:36;7.30;99.90
580;DHT22;276;48.392;9.950;2023-11-18T09:16:04;7.30;99.90
580;DHT22;276;48.392;9.950;2023-11-18T09:18:37;7.40;99.90
580;DHT22;276;48.392;9.950;2023-11-18T09:21:05;7.40;99.90
580;DHT22;276;48.392;9.950;2023-11-18T09:23:34;7.40;99.90
580;DHT22;276;48.392;9.950;2023-11-18T09:26:00;7.50;99.90
580;DHT22;276;48.392;9.950;2023-11-18T09:28:27;7.60;99.90
580;DHT22;276;48.392;9.950;2023-11-18T09:30:56;7.70;99.90
580;DHT22;276;48.392;9.950;2023-11-18T09:33:32;7.70;99.90
580;DHT22;276;48.392;9.950;2023-11-18T09:35:59;7.70;99.90
580;DHT22;276;48.392;9.950;2023-11-18T09:38:26;7.70;99.90
580;DHT22;276;48.392;9.950;2023-11-18T09:40:56;7.70;99.90
580;DHT22;276;48.392;9.950;2023-11-18T09:43:23;7.60;99.90
580;DHT22;276;48.392;9.950;2023-11-18T09:46:04;7.60;99.90
580;DHT22;276;48.392;9.950;2023-11-18T09:51:08;7.60;99.90
580;DHT22;276;48.392;9.950;2023-11-18T09:53:37;7.70;99.90
580;DHT22;276;48.392;9.950;2023-11-18T09:56:18;7.90;99.90
580;DHT22;276;48.392;9.950;2023-11-18T09:59:01;7.90;99.90
580;DHT22;276;48.392;9.950;2023-11-18T10:01:38;8.00;99.90
580;DHT22;276;48.392;9.950;2023-11-18T10:04:06;8.00;99.90
580;DHT22;276;48.392;9.950;2023-11-18T10:06:37;8.00;99.90
580;DHT22;276;48.392;9.950;2023-11-18T10:09:06;8.00;99.90
580;DHT22;276;48.392;9.950;2023-11-18T10:11:44;8.00;99.90
580;DHT22;276;48.392;9.950;2023-11-18T10:14:15;8.10;99.90
580;DHT22;276;48.392;9.950;2023-11-18T10:16:44;8.40;99.90
580;DHT22;276;48.392;9.950;2023-11-18T10:19:19;8.60;99.90
580;DHT22;276;48.392;9.950;2023-11-18T10:21:47;8.70;99.90
580;DHT22;276;48.392;9.950;2023-11-18T10:24:19;8.80;99.90
580;DHT22;276;48.392;9.950;2023-11-18T10:26:54;8.90;99.90
580;DHT22;276;48.392;9.950;2023-11-18T10:29:28;9.20;99.90
580;DHT22;276;48.392;9.950;2023-11-18T10:32:06;9.30;99.90
580;DHT22;276;48.392;9.950;2023-11-18T10:34:42;9.40;99.90
580;DHT22;276;48.392;9.950;2023-11-18T10:37:09;9.40;99.90
580;DHT22;276;48.392;9.950;2023-11-18T10:39:36;9.30;99.90
580;DHT22;276;48.392;9.950;2023-11-18T10:42:02;9.30;99.90
580;DHT22;276;48.392;9.950;2023-11-18T10:44:31;9.30;99.90
580;DHT22;276;48.392;9.950;2023-11-18T10:46:58;9.50;99.90
580;DHT22;276;48.392;9.950;2023-11-18T10:49:28;9.60;99.90
580;DHT22;276;48.392;9.950;2023-11-18T10:51:57;9.80;99.90
580;DHT22;276;48.392;9.950;2023-11-18T10:54:23;9.80;99.90
580;DHT22;276;48.392;9.950;2023-11-18T10:56:52;9.60;99.90
580;DHT22;276;48.392;9.950;2023-11-18T10:59:24;9.60;99.90
580;DHT22;276;48.392;9.950;2023-11-18T11:01:53;9.50;99.90
580;DHT22;276;48.392;9.950;2023-11-18T11:04:18;9.50;99.90
580;DHT22;276;48.392;9.950;2023-11-18T11:06:48;9.50;99.90
580;DHT22;276;48.392;9.950;2023-11-18T11:09:25;9.50;99.90
580;DHT22;276;48.392;9.950;2023-11-18T11:12:10;9.50;99.90
580;DHT22;276;48.392;9.950;2023-11-18T11:15:29;9.50;99.90
580;DHT22;276;48.392;9.950;2023-11-18T11:17:35;9.50;99.90
580;DHT22;276;48.392;9.950;2023-11-18T11:20:07;9.50;99.90
580;DHT22;276;48.392;9.950;2023-11-18T11:25:53;9.40;99.90
580;DHT22;276;48.392;9.950;2023-11-18T11:28:23;9.40;99.90
580;DHT22;276;48.392;9.950;2023-11-18T11:31:08;9.50;99.90
580;DHT22;276;48.392;9.950;2023-11-18T11:33:43;9.60;99.90
580;DHT22;276;48.392;9.950;2023-11-18T11:36:13;9.70;99.90
580;DHT22;276;48.392;9.950;2023-11-18T11:38:52;9.70;99.90
580;DHT22;276;48.392;9.950;2023-11-18T11:41:22;9.80;99.90
580;DHT22;276;48.392;9.950;2023-11-18T11:43:52;9.80;99.90
580;DHT22;276;48.392;9.950;2023-11-18T11:46:25;9.80;99.90
580;DHT22;276;48.392;9.950;2023-11-18T11:49:00;9.80;99.90
580;DHT22;276;48.392;9.950;2023-11-18T11:51:42;9.80;99.90
580;DHT22;276;48.392;9.950;2023-11-18T11:54:20;9.80;99.90
580;DHT22;276;48.392;9.950;2023-11-18T11:56:48;9.90;99.90
580;DHT22;276;48.392;9.950;2023-11-18T12:02:15;9.90;99.90
580;DHT22;276;48.392;9.950;2023-11-18T12:04:49;9.90;99.90
580;DHT22;276;48.392;9.950;2023-11-18T12:07:19;9.80;99.90
580;DHT22;276;48.392;9.950;2023-11-18T12:09:47;9.80;99.90
580;DHT22;276;48.392;9.950;2023-11-18T12:12:20;9.70;99.90
580;DHT22;276;48.392;9.950;2023-11-18T12:14:53;9.70;99.90
580;DHT22;276;48.392;9.950;2023-11-18T12:17:22;9.70;99.90
580;DHT22;276;48.392;9.950;2023-11-18T12:19:50;9.70;99.90
580;DHT22;276;48.392;9.950;2023-11-18T12:22:26;9.80;99.90
580;DHT22;276;48.392;9.950;2023-11-18T12:33:02;9.70;99.90
580;DHT22;276;48.392;9.950;2023-11-18T12:40:56;9.70;99.90
580;DHT22;276;48.392;9.950;2023-11-18T12:43:47;9.70;99.90
580;DHT22;276;48.392;9.950;2023-11-18T12:49:03;9.50;99.90
580;DHT22;276;48.392;9.950;2023-11-18T12:51:29;9.50;99.90
580;DHT22;276;48.392;9.950;2023-11-18T12:53:56;9.50;99.90
580;DHT22;276;48.392;9.950;2023-11-18T12:56:25;9.40;99.90
580;DHT22;276;48.392;9.950;2023-11-18T12:58:51;9.40;99.90
580;DHT22;276;48.392;9.950;2023-11-18T13:01:17;9.40;99.90
580;DHT22;276;48.392;9.950;2023-11-18T13:03:44;9.30;99.90
580;DHT22;276;48.392;9.950;2023-11-18T13:06:11;9.40;99.90
580;DHT22;276;48.392;9.950;2023-11-18T13:08:42;9.40;99.90
580;DHT22;276;48.392;9.950;2023-11-18T13:11:13;9.40;99.90
580;DHT22;276;48.392;9.950;2023-11-18T13:13:42;9.50;99.90
580;DHT22;276;48.392;9.950;2023-11-18T13:16:10;9.50;99.90
580;DHT22;276;48.392;9.950;2023-11-18T13:18:43;9.50;99.90
580;DHT22;276;48.392;9.950;2023-11-18T13:21:14;9.50;99.90
580;DHT22;276;48.392;9.950;2023-11-18T13:23:45;9.60;99.90
580;DHT22;276;48.392;9.950;2023-11-18T13:26:12;9.60;99.90
580;DHT22;276;48.392;9.950;2023-11-18T13:28:38;9.50;99.90
580;DHT22;276;48.392;9.950;2023-11-18T13:31:08;9.50;99.90
580;DHT22;276;48.392;9.950;2023-11-18T13:33:41;9.50;99.90
580;DHT22;276;48.392;9.950;2023-11-18T13:36:10;9.50;99.90
580;DHT22;276;48.392;9.950;2023-11-18T13:38:38;9.60;99.90
580;DHT22;276;48.392;9.950;2023-11-18T13:41:07;9.60;99.90
580;DHT22;276;48.392;9.950;2023-11-18T13:43:43;9.60;99.90
580;DHT22;276;48.392;9.950;2023-11-18T13:46:13;9.60;99.90
580;DHT22;276;48.392;9.950;2023-11-18T13:48:41;9.60;99.90
580;DHT22;276;48.392;9.950;2023-11-18T13:51:11;9.70;99.90
580;DHT22;276;48.392;9.950;2023-11-18T13:53:41;9.70;99.90
580;DHT22;276;48.392;9.950;2023-11-18T13:56:11;9.70;99.90
580;DHT22;276;48.392;9.950;2023-11-18T13:58:38;9.80;99.90
580;DHT22;276;48.392;9.950;2023-11-18T14:01:08;9.80;99.90
580;DHT22;276;48.392;9.950;2023-11-18T14:03:35;9.80;99.90
580;DHT22;276;48.392;9.950;2023-11-18T14:06:05;9.80;99.90
580;DHT22;276;48.392;9.950;2023-11-18T14:08:30;9.80;99.90
580;DHT22;276;48.392;9.950;2023-11-18T14:10:56;9.80;99.90
580;DHT22;276;48.392;9.950;2023-11-18T14:13:22;9.80;99.90
580;DHT22;276;48.392;9.950;2023-11-18T14:15:48;9.80;99.90
580;DHT22;276;48.392;9.950;2023-11-18T14:18:20;9.80;99.90
580;DHT22;276;48.392;9.950;2023-11-18T14:20:46;9.80;99.90
580;DHT22;276;48.392;9.950;2023-11-18T14:23:13;9.80;99.90
580;DHT22;276;48.392;9.950;2023-11-18T14:25:39;9.80;99.90
580;DHT22;276;48.392;9.950;2023-11-18T14:28:05;9.80;99.90
580;DHT22;276;48.392;9.950;2023-11-18T14:30:34;9.90;99.90
580;DHT22;276;48.392;9.950;2023-11-18T14:33:00;9.90;99.90
580;DHT22;276;48.392;9.950;2023-11-18T14:35:25;9.80;99.90
580;DHT22;276;48.392;9.950;2023-11-18T14:37:51;9.90;99.90
580;DHT22;276;48.392;9.950;2023-11-18T14:40:19;9.90;99.90
580;DHT22;276;48.392;9.950;2023-11-18T14:42:49;9.90;99.90
580;DHT22;276;48.392;9.950;2023-11-18T14:45:18;9.90;99.90
580;DHT22;276;48.392;9.950;2023-11-18T14:47:44;9.90;99.90
580;DHT22;276;48.392;9.950;2023-11-18T14:50:14;9.80;99.90
580;DHT22;276;48.392;9.950;2023-11-18T14:52:48;9.80;99.90
580;DHT22;276;48.392;9.950;2023-11-18T14:55:16;9.80;99.90
580;DHT22;276;48.392;9.950;2023-11-18T14:57:46;9.70;99.90
580;DHT22;276;48.392;9.950;2023-11-18T15:00:14;9.70;99.90
580;DHT22;276;48.392;9.950;2023-11-18T15:02:50;9.70;99.90
580;DHT22;276;48.392;9.950;2023-11-18T15:05:16;9.70;99.90
580;DHT22;276;48.392;9.950;2023-11-18T15:07:46;9.70;99.90
580;DHT22;276;48.392;9.950;2023-11-18T15:10:17;9.70;99.90
580;DHT22;276;48.392;9.950;2023-11-18T15:12:53;9.70;99.90
580;DHT22;276;48.392;9.950;2023-11-18T15:15:23;9.70;99.90
580;DHT22;276;48.392;9.950;2023-11-18T15:17:57;9.70;99.90
580;DHT22;276;48.392;9.950;2023-11-18T15:20:24;9.70;99.90
580;DHT22;276;48.392;9.950;2023-11-18T15:22:50;9.70;99.90
580;DHT22;276;48.392;9.950;2023-11-18T15:25:18;9.70;99.90
580;DHT22;276;48.392;9.950;2023-11-18T15:27:44;9.70;99.90
580;DHT22;276;48.392;9.950;2023-11-18T15:30:14;9.80;99.90
580;DHT22;276;48.392;9.950;2023-11-18T15:32:43;9.80;99.90
580;DHT22;276;48.392;9.950;2023-11-18T15:35:12;9.80;99.90
580;DHT22;276;48.392;9.950;2023-11-18T15:37:42;9.80;99.90
580;DHT22;276;48.392;9.950;2023-11-18T15:40:08;9.80;99.90
580;DHT22;276;48.392;9.950;2023-11-18T15:45:08;9.90;99.90
580;DHT22;276;48.392;9.950;2023-11-18T15:47:38;9.90;99.90
580;DHT22;276;48.392;9.950;2023-11-18T15:50:05;9.90;99.90
580;DHT22;276;48.392;9.950;2023-11-18T15:52:34;10.00;99.90
580;DHT22;276;48.392;9.950;2023-11-18T15:55:04;10.00;99.90
580;DHT22;276;48.392;9.950;2023-11-18T15:57:36;10.00;99.90
580;DHT22;276;48.392;9.950;2023-11-18T16:00:05;10.00;99.90
580;DHT22;276;48.392;9.950;2023-11-18T16:02:34;10.00;99.90
580;DHT22;276;48.392;9.950;2023-11-18T16:05:00;10.00;99.90
580;DHT22;276;48.392;9.950;2023-11-18T16:07:25;10.00;99.90
580;DHT22;276;48.392;9.950;2023-11-18T16:09:53;10.00;99.90
580;DHT22;276;48.392;9.950;2023-11-18T16:12:23;10.00;99.90
580;DHT22;276;48.392;9.950;2023-11-18T16:14:54;10.00;99.90
580;DHT22;276;48.392;9.950;2023-11-18T16:17:23;10.00;99.90
580;DHT22;276;48.392;9.950;2023-11-18T16:19:52;10.10;99.90
580;DHT22;276;48.392;9.950;2023-11-18T16:22:18;10.10;99.90
580;DHT22;276;48.392;9.950;2023-11-18T16:24:45;10.00;99.90
580;DHT22;276;48.392;9.950;2023-11-18T16:27:15;10.00;99.90
580;DHT22;276;48.392;9.950;2023-11-18T16:29:41;10.00;99.90
580;DHT22;276;48.392;9.950;2023-11-18T16:32:07;10.00;99.90
580;DHT22;276;48.392;9.950;2023-11-18T16:34:36;10.00;99.90
580;DHT22;276;48.392;9.950;2023-11-18T16:37:04;9.90;99.90
580;DHT22;276;48.392;9.950;2023-11-18T16:39:29;9.90;99.90
580;DHT22;276;48.392;9.950;2023-11-18T16:41:56;9.90;99.90
580;DHT22;276;48.392;9.950;2023-11-18T16:44:21;9.80;99.90
580;DHT22;276;48.392;9.950;2023-11-18T16:46:47;9.80;99.90
580;DHT22;276;48.392;9.950;2023-11-18T16:49:15;9.80;99.90
580;DHT22;276;48.392;9.950;2023-11-18T16:51:42;9.70;99.90
580;DHT22;276;48.392;9.950;2023-11-18T16:54:07;9.70;99.90
580;DHT22;276;48.392;9.950;2023-11-18T16:56:33;9.70;99.90
580;DHT22;276;48.392;9.950;2023-11-18T16:58:59;9.70;99.90
580;DHT22;276;48.392;9.950;2023-11-18T17:01:25;9.70;99.90
580;DHT22;276;48.392;9.950;2023-11-18T17:03:53;9.70;99.90
580;DHT22;276;48.392;9.950;2023-11-18T17:06:19;9.70;99.90
580;DHT22;276;48.392;9.950;2023-11-18T17:08:47;9.60;99.90
580;DHT22;276;48.392;9.950;2023-11-18T17:11:13;9.70;99.90
580;DHT22;276;48.392;9.950;2023-11-18T17:13:39;9.70;99.90
580;DHT22;276;48.392;9.950;2023-11-18T17:16:09;9.70;99.90
580;DHT22;276;48.392;9.950;2023-11-18T17:18:37;9.70;99.90
580;DHT22;276;48.392;9.950;2023-11-18T17:21:05;9.70;99.90
580;DHT22;276;48.392;9.950;2023-11-18T17:23:31;9.70;99.90
580;DHT22;276;48.392;9.950;2023-11-18T17:26:02;9.70;99.90
580;DHT22;276;48.392;9.950;2023-11-18T17:28:31;9.60;99.90
580;DHT22;276;48.392;9.950;2023-11-18T17:30:56;9.60;99.90
580;DHT22;276;48.392;9.950;2023-11-18T17:33:24;9.60;99.90